sensor_id;sensor_type;location;lat;lon;timestamp;P1;durP1;ratioP1;P2;durP2;ratioP2
37407;SDS011;24866;50.248;8.252;2022-11-23T00:02:14;15.63;;;8.70;;
37407;SDS011;24866;50.248;8.252;2022-11-23T00:04:44;12.85;;;7.63;;
37407;SDS011;24866;50.248;8.252;2022-11-23T00:07:14;12.75;;;7.35;;
37407;SDS011;24866;50.248;8.252;2022-11-23T00:09:44;15.85;;;7.53;;
37407;SDS011;24866;50.248;8.252;2022-11-23T00:12:15;13.75;;;8.27;;
37407;SDS011;24866;50.248;8.252;2022-11-23T00:14:45;13.18;;;6.82;;
37407;SDS011;24866;50.248;8.252;2022-11-23T00:17:15;12.90;;;7.43;;
37407;SDS011;24866;50.248;8.252;2022-11-23T00:19:45;17.13;;;8.30;;
37407;SDS011;24866;50.248;8.252;2022-11-23T00:22:15;12.75;;;7.13;;
37407;SDS011;24866;50.248;8.252;2022-11-23T00:24:45;14.13;;;8.48;;
37407;SDS011;24866;50.248;8.252;2022-11-23T00:27:16;17.13;;;7.68;;
37407;SDS011;24866;50.248;8.252;2022-11-23T00:29:46;15.90;;;8.50;;
37407;SDS011;24866;50.248;8.252;2022-11-23T00:32:16;12.82;;;7.47;;
37407;SDS011;24866;50.248;8.252;2022-11-23T00:34:46;18.45;;;8.95;;
37407;SDS011;24866;50.248;8.252;2022-11-23T00:37:16;12.57;;;7.25;;
37407;SDS011;24866;50.248;8.252;2022-11-23T00:39:45;15.65;;;7.70;;
37407;SDS011;24866;50.248;8.252;2022-11-23T00:42:17;13.07;;;7.15;;
37407;SDS011;24866;50.248;8.252;2022-11-23T00:44:47;16.38;;;7.43;;
37407;SDS011;24866;50.248;8.252;2022-11-23T00:47:16;12.18;;;6.40;;
37407;SDS011;24866;50.248;8.252;2022-11-23T00:49:46;11.50;;;8.02;;
37407;SDS011;24866;50.248;8.252;2022-11-23T00:52:16;14.15;;;7.18;;
37407;SDS011;24866;50.248;8.252;2022-11-23T00:54:46;11.95;;;6.55;;
37407;SDS011;24866;50.248;8.252;2022-11-23T00:57:17;13.63;;;6.35;;
37407;SDS011;24866;50.248;8.252;2022-11-23T00:59:47;13.05;;;6.55;;
37407;SDS011;24866;50.248;8.252;2022-11-23T01:02:17;15.23;;;6.18;;
37407;SDS011;24866;50.248;8.252;2022-11-23T01:04:47;13.23;;;6.60;;
37407;SDS011;24866;50.248;8.252;2022-11-23T01:07:17;13.63;;;6.75;;
37407;SDS011;24866;50.248;8.252;2022-11-23T01:09:47;15.10;;;7.05;;
37407;SDS011;24866;50.248;8.252;2022-11-23T01:12:18;13.98;;;6.43;;
37407;SDS011;24866;50.248;8.252;2022-11-23T01:14:48;14.75;;;7.25;;
37407;SDS011;24866;50.248;8.252;2022-11-23T01:17:20;13.38;;;6.95;;
37407;SDS011;24866;50.248;8.252;2022-11-23T01:19:50;16.58;;;6.47;;
37407;SDS011;24866;50.248;8.252;2022-11-23T01:22:20;10.23;;;5.72;;
37407;SDS011;24866;50.248;8.252;2022-11-23T01:24:50;12.80;;;6.28;;
37407;SDS011;24866;50.248;8.252;2022-11-23T01:27:21;13.82;;;6.43;;
37407;SDS011;24866;50.248;8.252;2022-11-23T01:29:51;12.85;;;6.57;;
37407;SDS011;24866;50.248;8.252;2022-11-23T01:32:21;18.02;;;6.47;;
37407;SDS011;24866;50.248;8.252;2022-11-23T01:34:51;14.98;;;6.95;;
37407;SDS011;24866;50.248;8.252;2022-11-23T01:37:20;14.38;;;6.57;;
37407;SDS011;24866;50.248;8.252;2022-11-23T01:39:50;14.30;;;6.63;;
37407;SDS011;24866;50.248;8.252;2022-11-23T01:42:22;15.25;;;6.57;;
37407;SDS011;24866;50.248;8.252;2022-11-23T01:48:02;12.07;;;6.75;;
37407;SDS011;24866;50.248;8.252;2022-11-23T01:50:37;15.70;;;6.53;;
37407;SDS011;24866;50.248;8.252;2022-11-23T01:53:07;15.25;;;7.07;;
37407;SDS011;24866;50.248;8.252;2022-11-23T01:55:38;15.18;;;6.57;;
37407;SDS011;24866;50.248;8.252;2022-11-23T01:58:09;12.02;;;6.50;;
37407;SDS011;24866;50.248;8.252;2022-11-23T02:00:41;12.18;;;5.55;;
37407;SDS011;24866;50.248;8.252;2022-11-23T02:03:11;11.80;;;5.72;;
37407;SDS011;24866;50.248;8.252;2022-11-23T02:05:43;13.32;;;5.85;;
37407;SDS011;24866;50.248;8.252;2022-11-23T02:08:16;8.93;;;5.65;;
37407;SDS011;24866;50.248;8.252;2022-11-23T02:10:47;9.27;;;5.85;;
37407;SDS011;24866;50.248;8.252;2022-11-23T02:13:18;12.38;;;6.47;;
37407;SDS011;24866;50.248;8.252;2022-11-23T02:15:48;13.43;;;5.93;;
37407;SDS011;24866;50.248;8.252;2022-11-23T02:18:20;17.70;;;7.13;;
37407;SDS011;24866;50.248;8.252;2022-11-23T02:20:51;13.70;;;6.68;;
37407;SDS011;24866;50.248;8.252;2022-11-23T02:23:25;13.20;;;6.47;;
37407;SDS011;24866;50.248;8.252;2022-11-23T02:26:04;11.35;;;6.40;;
37407;SDS011;24866;50.248;8.252;2022-11-23T02:28:38;16.73;;;7.60;;
37407;SDS011;24866;50.248;8.252;2022-11-23T02:31:13;13.10;;;6.32;;
37407;SDS011;24866;50.248;8.252;2022-11-23T02:33:43;13.48;;;6.30;;
37407;SDS011;24866;50.248;8.252;2022-11-23T02:36:27;13.65;;;6.90;;
37407;SDS011;24866;50.248;8.252;2022-11-23T02:39:04;11.40;;;5.07;;
37407;SDS011;24866;50.248;8.252;2022-11-23T02:41:40;14.45;;;5.55;;
37407;SDS011;24866;50.248;8.252;2022-11-23T02:44:26;15.25;;;5.38;;
37407;SDS011;24866;50.248;8.252;2022-11-23T02:47:02;10.65;;;4.90;;
37407;SDS011;24866;50.248;8.252;2022-11-23T02:49:32;9.70;;;4.38;;
37407;SDS011;24866;50.248;8.252;2022-11-23T02:52:03;14.90;;;5.45;;
37407;SDS011;24866;50.248;8.252;2022-11-23T02:54:33;13.98;;;6.35;;
37407;SDS011;24866;50.248;8.252;2022-11-23T02:57:05;8.38;;;4.40;;
37407;SDS011;24866;50.248;8.252;2022-11-23T02:59:35;10.10;;;5.03;;
37407;SDS011;24866;50.248;8.252;2022-11-23T03:02:05;11.05;;;5.15;;
37407;SDS011;24866;50.248;8.252;2022-11-23T03:04:35;14.13;;;5.72;;
37407;SDS011;24866;50.248;8.252;2022-11-23T03:07:05;10.07;;;5.93;;
37407;SDS011;24866;50.248;8.252;2022-11-23T03:09:34;11.43;;;6.22;;
37407;SDS011;24866;50.248;8.252;2022-11-23T03:12:06;15.85;;;7.30;;
37407;SDS011;24866;50.248;8.252;2022-11-23T03:14:36;13.48;;;7.30;;
37407;SDS011;24866;50.248;8.252;2022-11-23T03:17:06;11.63;;;6.53;;
37407;SDS011;24866;50.248;8.252;2022-11-23T03:19:36;10.07;;;6.45;;
37407;SDS011;24866;50.248;8.252;2022-11-23T03:22:06;17.15;;;9.25;;
37407;SDS011;24866;50.248;8.252;2022-11-23T03:24:36;15.10;;;7.80;;
37407;SDS011;24866;50.248;8.252;2022-11-23T03:27:07;11.20;;;7.78;;
37407;SDS011;24866;50.248;8.252;2022-11-23T03:29:37;14.50;;;8.07;;
37407;SDS011;24866;50.248;8.252;2022-11-23T03:32:07;15.80;;;8.98;;
37407;SDS011;24866;50.248;8.252;2022-11-23T03:34:37;14.57;;;8.55;;
37407;SDS011;24866;50.248;8.252;2022-11-23T03:37:07;16.27;;;8.45;;
37407;SDS011;24866;50.248;8.252;2022-11-23T03:39:37;14.73;;;7.57;;
37407;SDS011;24866;50.248;8.252;2022-11-23T03:42:08;15.32;;;7.55;;
37407;SDS011;24866;50.248;8.252;2022-11-23T03:44:38;14.25;;;7.93;;
37407;SDS011;24866;50.248;8.252;2022-11-23T03:47:08;18.75;;;8.80;;
37407;SDS011;24866;50.248;8.252;2022-11-23T03:49:39;21.02;;;9.00;;
37407;SDS011;24866;50.248;8.252;2022-11-23T03:52:09;12.57;;;8.45;;
37407;SDS011;24866;50.248;8.252;2022-11-23T03:54:39;11.55;;;7.15;;
37407;SDS011;24866;50.248;8.252;2022-11-23T03:57:10;11.20;;;7.75;;
37407;SDS011;24866;50.248;8.252;2022-11-23T03:59:40;14.85;;;7.75;;
37407;SDS011;24866;50.248;8.252;2022-11-23T04:02:10;12.93;;;7.07;;
37407;SDS011;24866;50.248;8.252;2022-11-23T04:04:39;15.55;;;7.10;;
37407;SDS011;24866;50.248;8.252;2022-11-23T04:07:09;14.40;;;7.57;;
37407;SDS011;24866;50.248;8.252;2022-11-23T04:09:39;12.32;;;6.70;;
37407;SDS011;24866;50.248;8.252;2022-11-23T04:12:10;13.40;;;7.70;;
37407;SDS011;24866;50.248;8.252;2022-11-23T04:14:40;13.80;;;6.65;;
37407;SDS011;24866;50.248;8.252;2022-11-23T04:17:10;13.35;;;6.90;;
37407;SDS011;24866;50.248;8.252;2022-11-23T04:19:40;15.90;;;7.25;;
37407;SDS011;24866;50.248;8.252;2022-11-23T04:22:10;13.80;;;6.80;;
37407;SDS011;24866;50.248;8.252;2022-11-23T04:24:40;13.80;;;7.30;;
37407;SDS011;24866;50.248;8.252;2022-11-23T04:27:11;12.27;;;7.13;;
37407;SDS011;24866;50.248;8.252;2022-11-23T04:29:41;17.55;;;7.72;;
37407;SDS011;24866;50.248;8.252;2022-11-23T04:32:11;15.02;;;7.05;;
37407;SDS011;24866;50.248;8.252;2022-11-23T04:34:40;13.90;;;6.75;;
37407;SDS011;24866;50.248;8.252;2022-11-23T04:37:10;15.68;;;6.60;;
37407;SDS011;24866;50.248;8.252;2022-11-23T04:39:40;13.48;;;7.32;;
37407;SDS011;24866;50.248;8.252;2022-11-23T04:42:12;16.15;;;6.75;;
37407;SDS011;24866;50.248;8.252;2022-11-23T04:44:42;10.60;;;5.20;;
37407;SDS011;24866;50.248;8.252;2022-11-23T04:47:12;12.98;;;6.53;;
37407;SDS011;24866;50.248;8.252;2022-11-23T04:49:42;16.27;;;6.80;;
37407;SDS011;24866;50.248;8.252;2022-11-23T04:52:12;12.40;;;6.57;;
37407;SDS011;24866;50.248;8.252;2022-11-23T04:54:41;15.68;;;6.45;;
37407;SDS011;24866;50.248;8.252;2022-11-23T04:57:13;13.73;;;7.10;;
37407;SDS011;24866;50.248;8.252;2022-11-23T04:59:43;18.45;;;7.80;;
37407;SDS011;24866;50.248;8.252;2022-11-23T05:02:12;16.10;;;6.00;;
37407;SDS011;24866;50.248;8.252;2022-11-23T05:04:43;13.25;;;6.25;;
37407;SDS011;24866;50.248;8.252;2022-11-23T05:07:13;17.02;;;7.68;;
37407;SDS011;24866;50.248;8.252;2022-11-23T05:09:43;11.55;;;6.03;;
37407;SDS011;24866;50.248;8.252;2022-11-23T05:12:14;15.70;;;7.05;;
37407;SDS011;24866;50.248;8.252;2022-11-23T05:14:44;17.42;;;6.60;;
37407;SDS011;24866;50.248;8.252;2022-11-23T05:17:14;14.40;;;7.30;;
37407;SDS011;24866;50.248;8.252;2022-11-23T05:19:43;14.50;;;6.65;;
37407;SDS011;24866;50.248;8.252;2022-11-23T05:22:13;13.18;;;6.50;;
37407;SDS011;24866;50.248;8.252;2022-11-23T05:24:43;15.02;;;6.85;;
37407;SDS011;24866;50.248;8.252;2022-11-23T05:27:14;14.13;;;6.72;;
37407;SDS011;24866;50.248;8.252;2022-11-23T05:29:44;14.60;;;7.05;;
37407;SDS011;24866;50.248;8.252;2022-11-23T05:32:14;15.52;;;7.53;;
37407;SDS011;24866;50.248;8.252;2022-11-23T05:34:44;15.77;;;7.65;;
37407;SDS011;24866;50.248;8.252;2022-11-23T05:37:14;19.67;;;8.57;;
37407;SDS011;24866;50.248;8.252;2022-11-23T05:39:44;16.20;;;7.68;;
37407;SDS011;24866;50.248;8.252;2022-11-23T05:42:15;20.73;;;8.57;;
37407;SDS011;24866;50.248;8.252;2022-11-23T05:44:45;11.73;;;6.57;;
37407;SDS011;24866;50.248;8.252;2022-11-23T05:47:15;18.38;;;8.65;;
37407;SDS011;24866;50.248;8.252;2022-11-23T05:49:45;13.20;;;8.52;;
37407;SDS011;24866;50.248;8.252;2022-11-23T05:52:15;15.68;;;7.43;;
37407;SDS011;24866;50.248;8.252;2022-11-23T05:54:45;17.38;;;7.38;;
37407;SDS011;24866;50.248;8.252;2022-11-23T05:57:16;15.52;;;7.90;;
37407;SDS011;24866;50.248;8.252;2022-11-23T05:59:46;18.40;;;9.02;;
37407;SDS011;24866;50.248;8.252;2022-11-23T06:02:17;18.70;;;8.98;;
37407;SDS011;24866;50.248;8.252;2022-11-23T06:04:46;13.38;;;7.78;;
37407;SDS011;24866;50.248;8.252;2022-11-23T06:07:16;18.15;;;7.82;;
37407;SDS011;24866;50.248;8.252;2022-11-23T06:09:46;16.35;;;8.20;;
37407;SDS011;24866;50.248;8.252;2022-11-23T06:12:18;21.58;;;8.43;;
37407;SDS011;24866;50.248;8.252;2022-11-23T06:14:48;16.35;;;7.50;;
37407;SDS011;24866;50.248;8.252;2022-11-23T06:17:18;20.33;;;9.00;;
37407;SDS011;24866;50.248;8.252;2022-11-23T06:19:48;20.50;;;8.55;;
37407;SDS011;24866;50.248;8.252;2022-11-23T06:22:17;15.18;;;8.20;;
37407;SDS011;24866;50.248;8.252;2022-11-23T06:24:47;18.60;;;8.48;;
37407;SDS011;24866;50.248;8.252;2022-11-23T06:27:19;15.25;;;8.95;;
37407;SDS011;24866;50.248;8.252;2022-11-23T06:29:48;19.00;;;9.35;;
37407;SDS011;24866;50.248;8.252;2022-11-23T06:32:19;21.02;;;9.02;;
37407;SDS011;24866;50.248;8.252;2022-11-23T06:34:49;19.20;;;9.45;;
37407;SDS011;24866;50.248;8.252;2022-11-23T06:37:19;17.15;;;10.00;;
37407;SDS011;24866;50.248;8.252;2022-11-23T06:39:49;20.70;;;9.90;;
37407;SDS011;24866;50.248;8.252;2022-11-23T06:42:20;16.50;;;9.20;;
37407;SDS011;24866;50.248;8.252;2022-11-23T06:44:50;24.83;;;10.68;;
37407;SDS011;24866;50.248;8.252;2022-11-23T06:47:20;17.25;;;8.88;;
37407;SDS011;24866;50.248;8.252;2022-11-23T06:49:49;18.85;;;9.07;;
37407;SDS011;24866;50.248;8.252;2022-11-23T06:52:19;21.30;;;9.55;;
37407;SDS011;24866;50.248;8.252;2022-11-23T06:54:49;15.98;;;8.88;;
37407;SDS011;24866;50.248;8.252;2022-11-23T06:57:21;16.77;;;8.20;;
37407;SDS011;24866;50.248;8.252;2022-11-23T06:59:51;13.15;;;7.97;;
37407;SDS011;24866;50.248;8.252;2022-11-23T07:02:21;19.08;;;10.02;;
37407;SDS011;24866;50.248;8.252;2022-11-23T07:04:51;15.52;;;9.80;;
37407;SDS011;24866;50.248;8.252;2022-11-23T07:07:21;26.30;;;10.40;;
37407;SDS011;24866;50.248;8.252;2022-11-23T07:09:50;14.02;;;9.27;;
37407;SDS011;24866;50.248;8.252;2022-11-23T07:12:22;19.35;;;9.18;;
37407;SDS011;24866;50.248;8.252;2022-11-23T07:14:52;17.67;;;9.38;;
37407;SDS011;24866;50.248;8.252;2022-11-23T07:17:22;19.08;;;9.25;;
37407;SDS011;24866;50.248;8.252;2022-11-23T07:19:51;17.15;;;8.10;;
37407;SDS011;24866;50.248;8.252;2022-11-23T07:22:21;12.48;;;7.60;;
37407;SDS011;24866;50.248;8.252;2022-11-23T07:24:51;18.35;;;8.82;;
37407;SDS011;24866;50.248;8.252;2022-11-23T07:27:22;18.52;;;9.43;;
37407;SDS011;24866;50.248;8.252;2022-11-23T07:29:52;17.85;;;9.30;;
37407;SDS011;24866;50.248;8.252;2022-11-23T07:32:22;15.23;;;9.18;;
37407;SDS011;24866;50.248;8.252;2022-11-23T07:34:52;18.33;;;8.98;;
37407;SDS011;24866;50.248;8.252;2022-11-23T07:37:22;22.38;;;9.90;;
37407;SDS011;24866;50.248;8.252;2022-11-23T07:39:52;16.58;;;10.20;;
37407;SDS011;24866;50.248;8.252;2022-11-23T07:42:23;14.77;;;9.07;;
37407;SDS011;24866;50.248;8.252;2022-11-23T07:44:53;17.48;;;9.80;;
37407;SDS011;24866;50.248;8.252;2022-11-23T07:47:23;14.95;;;9.05;;
37407;SDS011;24866;50.248;8.252;2022-11-23T07:49:53;23.67;;;11.15;;
37407;SDS011;24866;50.248;8.252;2022-11-23T07:52:23;18.60;;;10.00;;
37407;SDS011;24866;50.248;8.252;2022-11-23T07:54:53;15.90;;;8.88;;
37407;SDS011;24866;50.248;8.252;2022-11-23T07:57:24;14.68;;;8.07;;
37407;SDS011;24866;50.248;8.252;2022-11-23T07:59:54;19.25;;;8.90;;
37407;SDS011;24866;50.248;8.252;2022-11-23T08:02:24;19.30;;;9.13;;
37407;SDS011;24866;50.248;8.252;2022-11-23T08:04:54;18.30;;;8.45;;
37407;SDS011;24866;50.248;8.252;2022-11-23T08:07:24;16.77;;;8.00;;
37407;SDS011;24866;50.248;8.252;2022-11-23T08:09:54;16.70;;;8.20;;
37407;SDS011;24866;50.248;8.252;2022-11-23T08:12:25;18.27;;;8.90;;
37407;SDS011;24866;50.248;8.252;2022-11-23T08:14:56;22.60;;;10.57;;
37407;SDS011;24866;50.248;8.252;2022-11-23T08:17:26;12.18;;;7.90;;
37407;SDS011;24866;50.248;8.252;2022-11-23T08:19:56;15.43;;;8.48;;
37407;SDS011;24866;50.248;8.252;2022-11-23T08:22:26;16.33;;;7.53;;
37407;SDS011;24866;50.248;8.252;2022-11-23T08:24:56;16.02;;;7.70;;
37407;SDS011;24866;50.248;8.252;2022-11-23T08:27:27;15.07;;;7.38;;
37407;SDS011;24866;50.248;8.252;2022-11-23T08:29:58;14.43;;;6.53;;
37407;SDS011;24866;50.248;8.252;2022-11-23T08:32:29;14.23;;;5.68;;
37407;SDS011;24866;50.248;8.252;2022-11-23T08:34:59;12.15;;;5.78;;
37407;SDS011;24866;50.248;8.252;2022-11-23T08:37:29;14.25;;;6.45;;
37407;SDS011;24866;50.248;8.252;2022-11-23T08:39:59;8.48;;;5.35;;
37407;SDS011;24866;50.248;8.252;2022-11-23T08:42:30;12.75;;;5.25;;
37407;SDS011;24866;50.248;8.252;2022-11-23T08:45:00;15.60;;;5.15;;
37407;SDS011;24866;50.248;8.252;2022-11-23T08:47:31;10.20;;;4.68;;
37407;SDS011;24866;50.248;8.252;2022-11-23T08:50:02;11.07;;;5.22;;
37407;SDS011;24866;50.248;8.252;2022-11-23T08:52:33;10.57;;;5.38;;
37407;SDS011;24866;50.248;8.252;2022-11-23T08:55:03;10.90;;;4.50;;
37407;SDS011;24866;50.248;8.252;2022-11-23T08:57:35;9.30;;;4.13;;
37407;SDS011;24866;50.248;8.252;2022-11-23T09:00:06;10.02;;;4.00;;
37407;SDS011;24866;50.248;8.252;2022-11-23T09:02:36;10.30;;;3.70;;
37407;SDS011;24866;50.248;8.252;2022-11-23T09:05:07;9.85;;;4.90;;
37407;SDS011;24866;50.248;8.252;2022-11-23T09:07:37;12.93;;;4.13;;
37407;SDS011;24866;50.248;8.252;2022-11-23T09:10:08;9.48;;;4.28;;
37407;SDS011;24866;50.248;8.252;2022-11-23T09:12:40;10.63;;;4.72;;
37407;SDS011;24866;50.248;8.252;2022-11-23T09:15:10;8.07;;;4.47;;
37407;SDS011;24866;50.248;8.252;2022-11-23T09:17:40;14.02;;;4.68;;
37407;SDS011;24866;50.248;8.252;2022-11-23T09:20:10;10.05;;;4.90;;
37407;SDS011;24866;50.248;8.252;2022-11-23T09:22:40;10.45;;;4.85;;
37407;SDS011;24866;50.248;8.252;2022-11-23T09:25:10;12.82;;;5.00;;
37407;SDS011;24866;50.248;8.252;2022-11-23T09:27:43;10.48;;;5.20;;
37407;SDS011;24866;50.248;8.252;2022-11-23T09:30:14;8.73;;;4.85;;
37407;SDS011;24866;50.248;8.252;2022-11-23T09:32:44;10.25;;;4.00;;
37407;SDS011;24866;50.248;8.252;2022-11-23T09:35:14;9.35;;;4.03;;
37407;SDS011;24866;50.248;8.252;2022-11-23T09:37:44;14.43;;;4.47;;
37407;SDS011;24866;50.248;8.252;2022-11-23T09:40:14;13.20;;;3.83;;
37407;SDS011;24866;50.248;8.252;2022-11-23T09:42:59;12.88;;;4.00;;
37407;SDS011;24866;50.248;8.252;2022-11-23T09:45:50;9.50;;;3.25;;
37407;SDS011;24866;50.248;8.252;2022-11-23T09:48:28;14.85;;;3.88;;
37407;SDS011;24866;50.248;8.252;2022-11-23T09:51:08;12.55;;;4.40;;
37407;SDS011;24866;50.248;8.252;2022-11-23T09:53:44;15.23;;;4.45;;
37407;SDS011;24866;50.248;8.252;2022-11-23T09:56:18;9.80;;;3.83;;
37407;SDS011;24866;50.248;8.252;2022-11-23T09:58:53;17.75;;;4.82;;
37407;SDS011;24866;50.248;8.252;2022-11-23T10:01:25;7.88;;;3.15;;
37407;SDS011;24866;50.248;8.252;2022-11-23T10:03:57;10.53;;;3.93;;
37407;SDS011;24866;50.248;8.252;2022-11-23T10:06:27;13.55;;;3.92;;
37407;SDS011;24866;50.248;8.252;2022-11-23T10:09:00;14.95;;;4.25;;
37407;SDS011;24866;50.248;8.252;2022-11-23T10:11:50;16.20;;;3.35;;
37407;SDS011;24866;50.248;8.252;2022-11-23T10:14:44;10.38;;;2.15;;
37407;SDS011;24866;50.248;8.252;2022-11-23T10:17:23;12.00;;;2.47;;
37407;SDS011;24866;50.248;8.252;2022-11-23T10:20:03;11.43;;;2.20;;
37407;SDS011;24866;50.248;8.252;2022-11-23T10:22:50;13.88;;;2.72;;
37407;SDS011;24866;50.248;8.252;2022-11-23T10:25:26;10.65;;;2.45;;
37407;SDS011;24866;50.248;8.252;2022-11-23T10:28:01;9.68;;;3.00;;
37407;SDS011;24866;50.248;8.252;2022-11-23T10:30:40;21.92;;;4.90;;
37407;SDS011;24866;50.248;8.252;2022-11-23T10:33:15;14.70;;;2.90;;
37407;SDS011;24866;50.248;8.252;2022-11-23T10:35:50;10.48;;;3.00;;
37407;SDS011;24866;50.248;8.252;2022-11-23T10:38:21;13.40;;;2.58;;
37407;SDS011;24866;50.248;8.252;2022-11-23T10:40:59;9.63;;;2.60;;
37407;SDS011;24866;50.248;8.252;2022-11-23T10:43:32;11.73;;;2.20;;
37407;SDS011;24866;50.248;8.252;2022-11-23T10:46:24;9.73;;;2.15;;
37407;SDS011;24866;50.248;8.252;2022-11-23T10:49:07;9.07;;;2.72;;
37407;SDS011;24866;50.248;8.252;2022-11-23T10:51:48;6.65;;;2.00;;
37407;SDS011;24866;50.248;8.252;2022-11-23T10:54:23;8.88;;;2.20;;
37407;SDS011;24866;50.248;8.252;2022-11-23T10:56:56;13.82;;;2.63;;
37407;SDS011;24866;50.248;8.252;2022-11-23T10:59:32;6.68;;;1.88;;
37407;SDS011;24866;50.248;8.252;2022-11-23T11:02:15;9.20;;;1.98;;
37407;SDS011;24866;50.248;8.252;2022-11-23T11:04:47;6.93;;;2.28;;
37407;SDS011;24866;50.248;8.252;2022-11-23T11:07:19;9.13;;;2.87;;
37407;SDS011;24866;50.248;8.252;2022-11-23T11:09:53;7.68;;;2.25;;
37407;SDS011;24866;50.248;8.252;2022-11-23T11:12:24;7.07;;;2.13;;
37407;SDS011;24866;50.248;8.252;2022-11-23T11:14:57;5.75;;;2.05;;
37407;SDS011;24866;50.248;8.252;2022-11-23T11:17:32;6.28;;;2.35;;
37407;SDS011;24866;50.248;8.252;2022-11-23T11:22:58;14.65;;;2.70;;
37407;SDS011;24866;50.248;8.252;2022-11-23T11:25:32;11.45;;;3.45;;
37407;SDS011;24866;50.248;8.252;2022-11-23T11:28:05;7.85;;;2.08;;
37407;SDS011;24866;50.248;8.252;2022-11-23T11:30:52;8.02;;;2.10;;
37407;SDS011;24866;50.248;8.252;2022-11-23T11:33:35;11.15;;;2.65;;
37407;SDS011;24866;50.248;8.252;2022-11-23T11:36:09;14.82;;;2.30;;
37407;SDS011;24866;50.248;8.252;2022-11-23T11:38:45;8.88;;;2.20;;
37407;SDS011;24866;50.248;8.252;2022-11-23T11:41:17;8.90;;;2.70;;
37407;SDS011;24866;50.248;8.252;2022-11-23T11:43:54;9.05;;;2.08;;
37407;SDS011;24866;50.248;8.252;2022-11-23T11:46:32;6.80;;;1.73;;
37407;SDS011;24866;50.248;8.252;2022-11-23T11:49:09;11.13;;;2.10;;
37407;SDS011;24866;50.248;8.252;2022-11-23T11:51:44;9.07;;;2.22;;
37407;SDS011;24866;50.248;8.252;2022-11-23T11:54:17;7.32;;;2.60;;
37407;SDS011;24866;50.248;8.252;2022-11-23T11:56:51;12.02;;;2.63;;
37407;SDS011;24866;50.248;8.252;2022-11-23T11:59:24;7.75;;;2.05;;
37407;SDS011;24866;50.248;8.252;2022-11-23T12:01:59;8.43;;;2.15;;
37407;SDS011;24866;50.248;8.252;2022-11-23T12:04:48;5.35;;;1.60;;
37407;SDS011;24866;50.248;8.252;2022-11-23T12:07:29;8.40;;;2.08;;
37407;SDS011;24866;50.248;8.252;2022-11-23T12:10:04;8.45;;;2.35;;
37407;SDS011;24866;50.248;8.252;2022-11-23T12:12:39;5.45;;;1.90;;
37407;SDS011;24866;50.248;8.252;2022-11-23T12:15:15;5.93;;;1.90;;
37407;SDS011;24866;50.248;8.252;2022-11-23T12:17:51;12.65;;;2.60;;
37407;SDS011;24866;50.248;8.252;2022-11-23T12:20:38;8.73;;;1.85;;
37407;SDS011;24866;50.248;8.252;2022-11-23T12:23:19;9.57;;;1.83;;
37407;SDS011;24866;50.248;8.252;2022-11-23T12:26:01;9.40;;;2.53;;
37407;SDS011;24866;50.248;8.252;2022-11-23T12:28:56;7.72;;;2.13;;
37407;SDS011;24866;50.248;8.252;2022-11-23T12:31:56;10.73;;;2.22;;
37407;SDS011;24866;50.248;8.252;2022-11-23T12:34:40;9.15;;;2.25;;
37407;SDS011;24866;50.248;8.252;2022-11-23T12:37:38;9.40;;;2.00;;
37407;SDS011;24866;50.248;8.252;2022-11-23T12:40:21;5.95;;;1.95;;
37407;SDS011;24866;50.248;8.252;2022-11-23T12:43:03;9.13;;;1.50;;
37407;SDS011;24866;50.248;8.252;2022-11-23T12:45:55;13.32;;;2.00;;
37407;SDS011;24866;50.248;8.252;2022-11-23T12:48:48;6.32;;;1.60;;
37407;SDS011;24866;50.248;8.252;2022-11-23T12:51:32;9.82;;;1.95;;
37407;SDS011;24866;50.248;8.252;2022-11-23T12:54:15;6.38;;;1.70;;
37407;SDS011;24866;50.248;8.252;2022-11-23T12:56:59;5.57;;;1.35;;
37407;SDS011;24866;50.248;8.252;2022-11-23T12:59:39;7.95;;;2.00;;
37407;SDS011;24866;50.248;8.252;2022-11-23T13:11:51;9.90;;;1.80;;
37407;SDS011;24866;50.248;8.252;2022-11-23T13:14:34;5.65;;;1.70;;
37407;SDS011;24866;50.248;8.252;2022-11-23T13:17:20;8.82;;;1.83;;
37407;SDS011;24866;50.248;8.252;2022-11-23T13:20:19;8.48;;;1.88;;
37407;SDS011;24866;50.248;8.252;2022-11-23T13:22:57;8.43;;;1.20;;
37407;SDS011;24866;50.248;8.252;2022-11-23T13:25:28;4.88;;;1.25;;
37407;SDS011;24866;50.248;8.252;2022-11-23T13:28:01;5.88;;;1.27;;
37407;SDS011;24866;50.248;8.252;2022-11-23T13:30:34;6.20;;;1.33;;
37407;SDS011;24866;50.248;8.252;2022-11-23T13:33:24;5.97;;;1.30;;
37407;SDS011;24866;50.248;8.252;2022-11-23T13:35:57;6.82;;;1.55;;
37407;SDS011;24866;50.248;8.252;2022-11-23T13:38:35;6.95;;;1.02;;
37407;SDS011;24866;50.248;8.252;2022-11-23T13:44:26;7.00;;;2.05;;
37407;SDS011;24866;50.248;8.252;2022-11-23T13:47:00;7.68;;;2.22;;
37407;SDS011;24866;50.248;8.252;2022-11-23T13:49:39;8.18;;;1.65;;
37407;SDS011;24866;50.248;8.252;2022-11-23T13:52:26;5.75;;;2.22;;
37407;SDS011;24866;50.248;8.252;2022-11-23T13:55:00;5.90;;;1.83;;
37407;SDS011;24866;50.248;8.252;2022-11-23T13:57:33;7.70;;;1.95;;
37407;SDS011;24866;50.248;8.252;2022-11-23T14:06:24;8.88;;;2.05;;
37407;SDS011;24866;50.248;8.252;2022-11-23T14:09:03;6.55;;;1.63;;
37407;SDS011;24866;50.248;8.252;2022-11-23T14:11:41;7.18;;;1.83;;
37407;SDS011;24866;50.248;8.252;2022-11-23T14:17:01;7.53;;;1.55;;
37407;SDS011;24866;50.248;8.252;2022-11-23T14:19:44;7.25;;;1.85;;
37407;SDS011;24866;50.248;8.252;2022-11-23T14:22:33;5.70;;;1.38;;
37407;SDS011;24866;50.248;8.252;2022-11-23T14:25:17;5.57;;;1.52;;
37407;SDS011;24866;50.248;8.252;2022-11-23T14:27:59;7.00;;;1.60;;
37407;SDS011;24866;50.248;8.252;2022-11-23T14:30:43;8.60;;;1.77;;
37407;SDS011;24866;50.248;8.252;2022-11-23T14:33:26;6.95;;;1.75;;
37407;SDS011;24866;50.248;8.252;2022-11-23T14:36:08;7.78;;;1.65;;
37407;SDS011;24866;50.248;8.252;2022-11-23T14:39:02;7.80;;;1.58;;
37407;SDS011;24866;50.248;8.252;2022-11-23T14:41:58;10.77;;;2.60;;
37407;SDS011;24866;50.248;8.252;2022-11-23T14:44:31;5.45;;;1.48;;
37407;SDS011;24866;50.248;8.252;2022-11-23T14:47:02;7.88;;;1.70;;
37407;SDS011;24866;50.248;8.252;2022-11-23T14:49:34;7.87;;;1.63;;
37407;SDS011;24866;50.248;8.252;2022-11-23T14:52:05;6.40;;;1.25;;
37407;SDS011;24866;50.248;8.252;2022-11-23T14:54:47;7.03;;;1.38;;
37407;SDS011;24866;50.248;8.252;2022-11-23T14:57:18;5.72;;;1.45;;
37407;SDS011;24866;50.248;8.252;2022-11-23T14:59:51;6.53;;;1.42;;
37407;SDS011;24866;50.248;8.252;2022-11-23T15:02:24;4.82;;;1.30;;
37407;SDS011;24866;50.248;8.252;2022-11-23T15:05:03;8.13;;;1.40;;
37407;SDS011;24866;50.248;8.252;2022-11-23T15:07:43;7.65;;;1.60;;
37407;SDS011;24866;50.248;8.252;2022-11-23T15:10:19;8.35;;;2.30;;
37407;SDS011;24866;50.248;8.252;2022-11-23T15:12:58;8.95;;;1.70;;
37407;SDS011;24866;50.248;8.252;2022-11-23T15:15:28;5.50;;;1.50;;
37407;SDS011;24866;50.248;8.252;2022-11-23T15:18:00;3.42;;;1.30;;
37407;SDS011;24866;50.248;8.252;2022-11-23T15:20:31;5.88;;;2.00;;
37407;SDS011;24866;50.248;8.252;2022-11-23T15:23:05;8.20;;;1.73;;
37407;SDS011;24866;50.248;8.252;2022-11-23T15:25:48;13.82;;;3.15;;
37407;SDS011;24866;50.248;8.252;2022-11-23T15:28:21;13.70;;;4.85;;
37407;SDS011;24866;50.248;8.252;2022-11-23T15:30:54;20.27;;;6.40;;
37407;SDS011;24866;50.248;8.252;2022-11-23T15:33:24;18.92;;;6.85;;
37407;SDS011;24866;50.248;8.252;2022-11-23T15:35:54;18.08;;;5.38;;
37407;SDS011;24866;50.248;8.252;2022-11-23T15:38:26;11.30;;;4.05;;
37407;SDS011;24866;50.248;8.252;2022-11-23T15:40:56;10.77;;;3.10;;
37407;SDS011;24866;50.248;8.252;2022-11-23T15:43:32;10.55;;;3.00;;